ポートモレスビー の空港の天気 - METARとTAF

ポートモレスビー・ジャクソン国際空港 ( AYPY / POM ) - パプアニューギニア ポートモレスビー
飛行場実況気象(Metar)
観測時間08/08 12:00 PGT (08/08 02:00 UTC)
風向・風速南 4m/s
視程10km以上
天気現象
全天の4割程度の雲 雲底高度 760m
全天の8割程度の雲 雲底高度 1520m
気温29℃
湿度79%
気圧1011hPa
METARAYPY 080200Z 19007KT 9999 SCT025 BKN050 29/25 Q1011
過去の天気等 Google飛行場航空写真 Wunderground天気予報

過去48時間のMETAR

飛行場予報(TAF)
発表時間: 8/08 08:07 PGT (8/07 22:07 UTC)
予報対象時間: 8日10時 PGT ~ 9日10時 PGT
風向・風速北北西 3m/s
視程10km以上
天気現象弱いしゅう雨
全天の8割程度の雲 雲底高度 520m
TAF AYPY 072207Z 0800/0900 34006KT 9999 -SHRA BKN017 INTER 0802/0810 VRB15G25KT 3000 +SHRA BKN008 SCT017CB